Time;durP1;ratioP1;P1;durP2;ratioP2;P2;SDS_P1;SDS_P2;PMS_P1;PMS_P2;Temp;Humidity;BMP_temperature;BMP_pressure;BME280_temperature;BME280_humidity;BME280_pressure;Samples;Min_cycle;Max_cycle;Signal;HPM_P1;HPM_P2
2020/12/11 00:01:43;;;;;;;19.00;13.97;;;;;;;;;;5095915;28;20483;-58
2020/12/11 00:04:09;;;;;;;17.00;13.20;;;;;;;;;;5112512;28;20486;-57
2020/12/11 00:06:35;;;;;;;19.23;14.57;;;;;;;;;;5114113;28;20405;-58
2020/12/11 00:09:01;;;;;;;17.60;12.83;;;;;;;;;;5094633;28;20413;-57
2020/12/11 00:11:28;;;;;;;20.53;13.63;;;;;;;;;;5108885;28;20456;-57
2020/12/11 00:13:54;;;;;;;19.73;14.13;;;;;;;;;;5112696;28;20432;-57
2020/12/11 00:16:20;;;;;;;18.47;13.30;;;;;;;;;;5098437;28;20424;-57
2020/12/11 00:18:46;;;;;;;16.73;12.93;;;;;;;;;;5092114;28;20428;-57
2020/12/11 00:21:12;;;;;;;19.00;14.33;;;;;;;;;;5101476;27;20430;-57
2020/12/11 00:23:38;;;;;;;16.83;13.37;;;;;;;;;;5079908;28;20422;-58
2020/12/11 00:26:04;;;;;;;18.57;13.47;;;;;;;;;;5110506;28;20478;-57
2020/12/11 00:28:31;;;;;;;18.37;13.80;;;;;;;;;;5106918;28;20862;-58
2020/12/11 00:30:57;;;;;;;18.60;13.30;;;;;;;;;;5112790;28;20453;-57
2020/12/11 00:33:24;;;;;;;19.60;13.30;;;;;;;;;;5097645;28;20880;-58
2020/12/11 00:35:50;;;;;;;16.20;13.87;;;;;;;;;;5093741;28;20414;-57
2020/12/11 00:38:17;;;;;;;16.60;12.50;;;;;;;;;;5103279;28;20907;-57
2020/12/11 00:40:43;;;;;;;18.13;13.40;;;;;;;;;;5111245;28;20507;-59
2020/12/11 00:43:09;;;;;;;17.47;12.47;;;;;;;;;;5105423;28;20825;-57
2020/12/11 00:45:35;;;;;;;18.77;13.63;;;;;;;;;;5078271;28;20496;-58
2020/12/11 00:48:01;;;;;;;17.50;13.33;;;;;;;;;;5092336;28;20425;-57
2020/12/11 00:50:27;;;;;;;17.47;12.47;;;;;;;;;;5106929;27;20441;-57
2020/12/11 00:52:53;;;;;;;16.23;12.00;;;;;;;;;;5098583;28;20465;-58
2020/12/11 00:55:21;;;;;;;16.33;12.47;;;;;;;;;;5075218;28;20424;-57
2020/12/11 00:57:48;;;;;;;16.47;12.63;;;;;;;;;;5110681;27;20442;-57
2020/12/11 01:00:17;;;;;;;14.67;11.63;;;;;;;;;;5101846;28;21069;-57
2020/12/11 01:02:44;;;;;;;15.20;11.83;;;;;;;;;;5097081;28;20807;-58
2020/12/11 01:05:10;;;;;;;15.67;11.53;;;;;;;;;;5084430;28;21003;-57
2020/12/11 01:07:36;;;;;;;14.70;11.33;;;;;;;;;;5121253;27;20427;-57
2020/12/11 01:10:02;;;;;;;13.90;10.83;;;;;;;;;;5113372;28;20409;-57
2020/12/11 01:12:28;;;;;;;14.67;10.27;;;;;;;;;;5108373;28;21420;-57
2020/12/11 01:14:54;;;;;;;13.43;10.47;;;;;;;;;;5103127;28;20516;-57
2020/12/11 01:17:20;;;;;;;15.40;11.83;;;;;;;;;;5096936;28;20185;-57
2020/12/11 01:19:46;;;;;;;14.30;10.93;;;;;;;;;;5110054;27;20430;-57
2020/12/11 01:22:13;;;;;;;13.30;11.17;;;;;;;;;;5093481;28;20429;-57
2020/12/11 01:24:39;;;;;;;17.47;11.43;;;;;;;;;;5096770;28;20425;-58
2020/12/11 01:27:05;;;;;;;16.27;11.17;;;;;;;;;;5095149;28;20421;-57
2020/12/11 01:29:31;;;;;;;12.37;10.10;;;;;;;;;;5103584;28;20930;-57
2020/12/11 01:31:58;;;;;;;13.97;10.30;;;;;;;;;;5096397;28;20465;-56
2020/12/11 01:34:24;;;;;;;14.03;10.47;;;;;;;;;;5107470;28;20421;-59
2020/12/11 01:36:51;;;;;;;13.53;10.13;;;;;;;;;;5092104;28;20426;-57
2020/12/11 01:39:17;;;;;;;12.70;9.77;;;;;;;;;;5105744;28;20421;-57
2020/12/11 01:41:43;;;;;;;12.27;9.10;;;;;;;;;;5097051;28;20427;-57
2020/12/11 01:44:10;;;;;;;12.40;9.77;;;;;;;;;;5102522;28;20458;-58
2020/12/11 01:46:38;;;;;;;10.67;9.17;;;;;;;;;;5084276;28;20772;-56
2020/12/11 01:49:04;;;;;;;12.47;9.90;;;;;;;;;;5087869;27;20442;-58
2020/12/11 01:51:31;;;;;;;13.13;10.20;;;;;;;;;;5121263;27;20938;-57
2020/12/11 01:53:58;;;;;;;10.87;9.03;;;;;;;;;;5109484;28;20421;-58
2020/12/11 01:56:26;;;;;;;12.80;9.27;;;;;;;;;;5100089;28;20504;-57
2020/12/11 01:59:00;;;;;;;12.63;10.13;;;;;;;;;;5108783;28;20451;-57
2020/12/11 02:01:26;;;;;;;13.97;9.30;;;;;;;;;;5097755;28;20840;-58
2020/12/11 02:03:52;;;;;;;12.50;9.07;;;;;;;;;;5092331;28;20472;-57
2020/12/11 02:06:18;;;;;;;12.93;10.57;;;;;;;;;;5091126;28;20434;-57
2020/12/11 02:08:44;;;;;;;11.73;9.53;;;;;;;;;;5106626;28;20436;-57
2020/12/11 02:11:17;;;;;;;13.60;10.20;;;;;;;;;;5104952;28;20199;-57
2020/12/11 02:13:43;;;;;;;10.97;8.90;;;;;;;;;;5094829;28;20433;-57
2020/12/11 02:16:09;;;;;;;12.33;9.47;;;;;;;;;;5091343;28;20425;-58
2020/12/11 02:18:36;;;;;;;12.17;9.23;;;;;;;;;;5110313;27;20171;-57
2020/12/11 02:21:02;;;;;;;12.10;8.73;;;;;;;;;;5078833;28;20453;-57
2020/12/11 02:23:28;;;;;;;11.53;9.73;;;;;;;;;;5094891;28;20446;-57
2020/12/11 02:25:54;;;;;;;11.13;9.20;;;;;;;;;;5098465;28;20668;-57
2020/12/11 02:28:20;;;;;;;11.93;9.37;;;;;;;;;;5103062;28;20452;-57
2020/12/11 02:30:46;;;;;;;11.93;9.13;;;;;;;;;;5092108;28;20477;-57
2020/12/11 02:33:12;;;;;;;11.97;9.73;;;;;;;;;;5102424;28;20499;-57
2020/12/11 02:35:41;;;;;;;12.03;9.07;;;;;;;;;;5091955;28;20256;-57
2020/12/11 02:38:09;;;;;;;12.63;9.23;;;;;;;;;;5094795;28;20526;-57
2020/12/11 02:40:38;;;;;;;13.57;9.73;;;;;;;;;;5088648;28;20421;-57
2020/12/11 02:43:04;;;;;;;12.53;9.47;;;;;;;;;;5100433;28;20421;-57
2020/12/11 02:45:30;;;;;;;12.80;9.47;;;;;;;;;;5096602;28;20574;-57
2020/12/11 02:47:56;;;;;;;13.07;10.30;;;;;;;;;;5102578;28;20183;-57
2020/12/11 02:50:22;;;;;;;13.00;10.27;;;;;;;;;;5123144;27;20188;-57
2020/12/11 02:52:48;;;;;;;12.23;9.77;;;;;;;;;;5098746;28;20673;-57
2020/12/11 02:55:14;;;;;;;12.93;10.37;;;;;;;;;;5103288;28;20186;-57
2020/12/11 02:57:40;;;;;;;12.03;9.70;;;;;;;;;;5099710;28;20629;-57
2020/12/11 03:00:06;;;;;;;12.97;9.07;;;;;;;;;;5101914;28;20249;-57
2020/12/11 03:02:32;;;;;;;12.10;9.20;;;;;;;;;;5110884;28;20277;-56
2020/12/11 03:04:58;;;;;;;12.27;10.17;;;;;;;;;;5080651;28;20433;-56
2020/12/11 03:07:24;;;;;;;12.83;9.93;;;;;;;;;;5097059;28;20191;-57
2020/12/11 03:09:50;;;;;;;12.03;9.27;;;;;;;;;;5094400;28;20425;-57
2020/12/11 03:12:16;;;;;;;10.63;9.27;;;;;;;;;;5094288;28;20210;-57
2020/12/11 03:14:42;;;;;;;11.20;9.67;;;;;;;;;;5098949;28;20626;-57
2020/12/11 03:17:09;;;;;;;10.53;8.87;;;;;;;;;;5084085;28;20977;-56
2020/12/11 03:19:35;;;;;;;12.77;8.87;;;;;;;;;;5083513;28;20900;-59
2020/12/11 03:22:01;;;;;;;11.97;9.50;;;;;;;;;;5110834;28;20493;-57
2020/12/11 03:24:27;;;;;;;12.17;9.80;;;;;;;;;;5094649;28;20401;-57
2020/12/11 03:26:53;;;;;;;12.27;9.40;;;;;;;;;;5096523;28;20181;-57
2020/12/11 03:29:19;;;;;;;11.80;8.93;;;;;;;;;;5095787;28;20426;-56
2020/12/11 03:31:45;;;;;;;12.80;9.00;;;;;;;;;;5094428;28;20461;-58
2020/12/11 03:34:11;;;;;;;11.77;9.17;;;;;;;;;;5103252;28;20756;-57
2020/12/11 03:36:37;;;;;;;11.27;8.37;;;;;;;;;;5099148;28;20178;-57
2020/12/11 03:39:03;;;;;;;12.50;9.67;;;;;;;;;;5099480;28;20422;-56
2020/12/11 03:41:29;;;;;;;10.90;8.40;;;;;;;;;;5076201;28;20175;-56
2020/12/11 03:43:55;;;;;;;11.33;8.57;;;;;;;;;;5101825;28;20421;-58
2020/12/11 03:46:22;;;;;;;11.97;8.80;;;;;;;;;;5076039;28;20493;-56
2020/12/11 03:48:48;;;;;;;10.87;8.20;;;;;;;;;;5110531;28;20452;-56
2020/12/11 03:51:24;;;;;;;10.17;8.57;;;;;;;;;;5104634;28;20425;-56
2020/12/11 03:53:50;;;;;;;11.40;8.43;;;;;;;;;;5085610;28;20445;-56
2020/12/11 03:56:17;;;;;;;10.93;8.33;;;;;;;;;;5094128;28;20491;-56
2020/12/11 03:58:43;;;;;;;12.30;8.43;;;;;;;;;;5106194;28;20413;-56
2020/12/11 04:01:10;;;;;;;10.17;8.27;;;;;;;;;;5094579;28;20785;-56
2020/12/11 04:03:36;;;;;;;9.67;7.83;;;;;;;;;;5077071;28;20551;-57
2020/12/11 04:06:05;;;;;;;11.30;9.13;;;;;;;;;;5094137;28;20841;-56
2020/12/11 04:08:31;;;;;;;10.27;9.07;;;;;;;;;;5086743;28;20417;-56
2020/12/11 04:10:57;;;;;;;10.20;8.20;;;;;;;;;;5076836;28;20915;-57
2020/12/11 04:13:23;;;;;;;10.93;8.23;;;;;;;;;;5100089;28;20477;-58
2020/12/11 04:15:49;;;;;;;9.60;8.10;;;;;;;;;;5098967;28;20421;-56
2020/12/11 04:18:15;;;;;;;10.70;7.80;;;;;;;;;;5112986;27;20428;-58
2020/12/11 04:20:41;;;;;;;11.40;8.00;;;;;;;;;;5095002;28;20422;-57
2020/12/11 04:23:07;;;;;;;9.90;8.47;;;;;;;;;;5086672;28;20545;-56
2020/12/11 04:25:33;;;;;;;9.87;8.17;;;;;;;;;;5082192;28;20454;-56
2020/12/11 04:27:59;;;;;;;11.40;8.83;;;;;;;;;;5108639;27;20210;-56
2020/12/11 04:30:25;;;;;;;10.30;8.13;;;;;;;;;;5107723;28;21118;-56
2020/12/11 04:32:51;;;;;;;10.97;8.73;;;;;;;;;;5084201;28;20195;-57
2020/12/11 04:35:17;;;;;;;10.07;8.03;;;;;;;;;;5113952;28;20425;-57
2020/12/11 04:37:43;;;;;;;10.30;8.60;;;;;;;;;;5104024;28;20212;-56
2020/12/11 04:40:09;;;;;;;8.67;6.70;;;;;;;;;;5092535;28;20453;-56
2020/12/11 04:42:36;;;;;;;9.37;7.57;;;;;;;;;;5075488;28;20746;-57
2020/12/11 04:45:02;;;;;;;8.67;7.37;;;;;;;;;;5093216;28;20463;-57
2020/12/11 04:47:28;;;;;;;9.60;7.93;;;;;;;;;;5085005;27;20863;-56
2020/12/11 04:49:54;;;;;;;9.43;8.03;;;;;;;;;;5102711;27;20892;-57
2020/12/11 04:52:22;;;;;;;11.20;8.43;;;;;;;;;;5097498;28;20452;-56
2020/12/11 04:54:50;;;;;;;11.97;8.13;;;;;;;;;;5104098;28;20449;-56
2020/12/11 04:57:21;;;;;;;10.47;8.37;;;;;;;;;;5076101;28;20417;-56
2020/12/11 04:59:50;;;;;;;9.33;8.20;;;;;;;;;;5079097;28;20510;-56
2020/12/11 05:02:17;;;;;;;10.00;8.30;;;;;;;;;;5080630;28;20425;-57
2020/12/11 05:04:43;;;;;;;10.00;8.23;;;;;;;;;;5111823;28;20408;-57
2020/12/11 05:07:09;;;;;;;9.73;7.97;;;;;;;;;;5107919;28;20428;-56
2020/12/11 05:09:35;;;;;;;9.70;7.80;;;;;;;;;;5112540;28;20408;-57
2020/12/11 05:12:13;;;;;;;10.17;8.40;;;;;;;;;;5094784;28;20199;-57
2020/12/11 05:14:39;;;;;;;10.83;8.00;;;;;;;;;;5081691;28;20509;-57
2020/12/11 05:17:05;;;;;;;11.10;8.80;;;;;;;;;;5094679;28;20841;-57
2020/12/11 05:19:33;;;;;;;10.13;8.43;;;;;;;;;;5110612;27;20414;-57
2020/12/11 05:22:12;;;;;;;10.50;8.27;;;;;;;;;;5110456;28;20429;-57
2020/12/11 05:24:45;;;;;;;8.77;7.63;;;;;;;;;;5110826;28;20489;-57
2020/12/11 05:27:29;;;;;;;12.57;8.07;;;;;;;;;;5095425;28;20414;-56
2020/12/11 05:29:56;;;;;;;9.73;8.50;;;;;;;;;;5081678;28;20413;-56
2020/12/11 05:32:35;;;;;;;10.17;8.03;;;;;;;;;;5087227;28;20471;-57
2020/12/11 05:35:01;;;;;;;10.63;7.97;;;;;;;;;;5102617;28;20422;-59
2020/12/11 05:37:27;;;;;;;10.13;8.37;;;;;;;;;;5096055;28;20904;-56
2020/12/11 05:39:53;;;;;;;10.33;8.57;;;;;;;;;;5088773;28;20418;-56
2020/12/11 05:42:19;;;;;;;11.40;8.50;;;;;;;;;;5082176;28;20417;-57
2020/12/11 05:44:45;;;;;;;9.43;8.27;;;;;;;;;;5096986;28;20470;-56
2020/12/11 05:47:17;;;;;;;9.60;8.43;;;;;;;;;;5111140;27;20197;-59
2020/12/11 05:49:44;;;;;;;11.23;8.30;;;;;;;;;;5093895;28;20413;-57
2020/12/11 05:52:11;;;;;;;9.47;7.93;;;;;;;;;;5112062;28;20441;-57
2020/12/11 05:54:45;;;;;;;11.80;8.60;;;;;;;;;;5089098;28;20508;-56
2020/12/11 05:57:11;;;;;;;9.03;8.00;;;;;;;;;;5112245;28;20887;-56
2020/12/11 05:59:38;;;;;;;8.80;7.53;;;;;;;;;;5112418;28;20455;-57
2020/12/11 06:02:04;;;;;;;11.40;8.23;;;;;;;;;;5105208;28;20913;-57
2020/12/11 06:04:30;;;;;;;9.90;8.10;;;;;;;;;;5073598;28;20457;-56
2020/12/11 06:06:57;;;;;;;9.70;7.63;;;;;;;;;;5095829;28;20450;-56
2020/12/11 06:09:28;;;;;;;10.20;8.13;;;;;;;;;;5098306;28;20436;-56
2020/12/11 06:11:58;;;;;;;11.70;7.97;;;;;;;;;;5111805;28;20791;-57
2020/12/11 06:14:30;;;;;;;9.03;7.63;;;;;;;;;;5094110;28;20417;-56
2020/12/11 06:16:56;;;;;;;9.27;8.27;;;;;;;;;;5084172;28;20410;-57
2020/12/11 06:19:23;;;;;;;10.67;8.13;;;;;;;;;;5075231;28;20417;-57
2020/12/11 06:21:50;;;;;;;10.03;8.00;;;;;;;;;;5089420;28;20424;-57
2020/12/11 06:24:31;;;;;;;8.87;7.40;;;;;;;;;;5084812;28;20413;-56
2020/12/11 06:27:01;;;;;;;10.07;7.87;;;;;;;;;;5111921;28;20413;-59
2020/12/11 06:29:31;;;;;;;8.90;7.30;;;;;;;;;;5101972;28;20416;-57
2020/12/11 06:31:57;;;;;;;9.67;7.57;;;;;;;;;;5110164;28;20488;-57
2020/12/11 06:34:27;;;;;;;10.03;7.63;;;;;;;;;;5111267;28;20401;-57
2020/12/11 06:36:54;;;;;;;9.70;7.87;;;;;;;;;;5088583;28;20861;-57
2020/12/11 06:39:50;;;;;;;9.83;7.97;;;;;;;;;;5120296;27;20425;-57
2020/12/11 06:42:35;;;;;;;10.97;7.47;;;;;;;;;;5056050;28;20513;-57
2020/12/11 06:45:20;;;;;;;10.10;7.63;;;;;;;;;;5090384;28;20410;-57
2020/12/11 06:47:55;;;;;;;8.83;6.97;;;;;;;;;;5091255;28;20481;-57
2020/12/11 06:50:23;;;;;;;9.27;7.77;;;;;;;;;;5090249;28;20416;-56
2020/12/11 06:52:49;;;;;;;9.50;7.30;;;;;;;;;;5110253;28;20464;-57
2020/12/11 06:55:15;;;;;;;9.87;7.57;;;;;;;;;;5110830;28;20399;-57
2020/12/11 06:57:42;;;;;;;9.80;7.97;;;;;;;;;;5092259;28;20420;-57
2020/12/11 07:00:23;;;;;;;10.13;8.27;;;;;;;;;;5109896;28;20880;-58
2020/12/11 07:03:08;;;;;;;9.00;7.40;;;;;;;;;;5110617;28;20465;-57
2020/12/11 07:05:34;;;;;;;7.90;6.73;;;;;;;;;;5111203;28;20389;-57
2020/12/11 07:08:00;;;;;;;7.47;6.37;;;;;;;;;;5111367;28;20423;-57
2020/12/11 07:10:29;;;;;;;8.80;7.23;;;;;;;;;;5111645;28;20175;-57
2020/12/11 07:12:55;;;;;;;8.43;6.87;;;;;;;;;;5111283;28;20203;-57
2020/12/11 07:15:21;;;;;;;8.93;7.13;;;;;;;;;;5105098;28;20428;-57
2020/12/11 07:17:47;;;;;;;10.17;8.23;;;;;;;;;;5093049;28;20409;-57
2020/12/11 07:20:13;;;;;;;8.43;7.43;;;;;;;;;;5111171;28;20738;-59
2020/12/11 07:22:39;;;;;;;9.27;7.57;;;;;;;;;;5111398;28;20525;-58
2020/12/11 07:25:05;;;;;;;9.30;7.77;;;;;;;;;;5111378;28;20783;-57
2020/12/11 07:27:31;;;;;;;10.47;8.70;;;;;;;;;;5109099;28;20426;-57
2020/12/11 07:29:57;;;;;;;8.97;7.23;;;;;;;;;;5096611;28;20186;-56
2020/12/11 07:32:23;;;;;;;11.60;8.00;;;;;;;;;;5131771;28;20633;-57
2020/12/11 07:34:50;;;;;;;11.87;7.63;;;;;;;;;;5131587;28;20490;-57
2020/12/11 07:37:16;;;;;;;9.53;7.50;;;;;;;;;;5113257;28;20937;-56
2020/12/11 07:39:42;;;;;;;10.40;8.73;;;;;;;;;;5131396;28;20408;-57
2020/12/11 07:42:09;;;;;;;10.50;7.97;;;;;;;;;;5131808;28;20400;-58
2020/12/11 07:44:36;;;;;;;10.23;7.80;;;;;;;;;;5131684;28;20400;-56
2020/12/11 07:47:06;;;;;;;10.80;9.10;;;;;;;;;;5131290;28;20487;-57
2020/12/11 07:49:43;;;;;;;8.97;7.97;;;;;;;;;;5130487;27;20993;-57
2020/12/11 07:52:09;;;;;;;10.20;8.27;;;;;;;;;;5135315;27;20459;-57
2020/12/11 07:54:36;;;;;;;10.87;8.87;;;;;;;;;;5135392;27;20400;-57
2020/12/11 07:57:08;;;;;;;9.37;7.40;;;;;;;;;;5116722;27;20939;-57
2020/12/11 07:59:41;;;;;;;10.23;8.90;;;;;;;;;;5115452;27;20420;-58
2020/12/11 08:02:08;;;;;;;9.03;7.93;;;;;;;;;;5114969;28;20847;-57
2020/12/11 08:04:37;;;;;;;8.80;7.90;;;;;;;;;;5096630;28;20472;-57
2020/12/11 08:07:04;;;;;;;12.10;8.53;;;;;;;;;;5114514;28;20409;-57
2020/12/11 08:09:33;;;;;;;10.73;8.13;;;;;;;;;;5114612;28;20416;-57
2020/12/11 08:12:19;;;;;;;8.40;7.47;;;;;;;;;;5114207;28;21025;-56
2020/12/11 08:14:45;;;;;;;10.13;8.13;;;;;;;;;;5094087;28;20391;-56
2020/12/11 08:17:12;;;;;;;10.90;8.57;;;;;;;;;;5075430;28;20406;-56
2020/12/11 08:19:39;;;;;;;10.37;8.57;;;;;;;;;;5075677;28;20426;-58
2020/12/11 08:22:15;;;;;;;9.67;8.03;;;;;;;;;;5075511;28;20493;-56
2020/12/11 08:24:42;;;;;;;13.60;7.90;;;;;;;;;;5093779;28;20413;-54
2020/12/11 08:27:20;;;;;;;9.93;8.30;;;;;;;;;;5093929;28;20418;-56
2020/12/11 08:30:16;;;;;;;8.63;7.67;;;;;;;;;;5076195;28;20409;-56
2020/12/11 08:32:43;;;;;;;9.47;7.90;;;;;;;;;;5093706;28;20537;-57
2020/12/11 08:35:22;;;;;;;9.57;7.87;;;;;;;;;;5093835;28;20410;-58
2020/12/11 08:37:59;;;;;;;8.43;7.47;;;;;;;;;;5093480;28;20397;-57
2020/12/11 08:40:29;;;;;;;10.57;8.00;;;;;;;;;;5093506;28;20405;-57
2020/12/11 08:48:38;;;;;;;9.43;7.90;;;;;;;;;;5134359;27;20912;-57
2020/12/11 08:51:06;;;;;;;9.07;7.47;;;;;;;;;;5134444;27;20388;-59
2020/12/11 08:53:37;;;;;;;14.33;8.30;;;;;;;;;;5115721;27;20492;-56
2020/12/11 08:56:07;;;;;;;9.70;7.80;;;;;;;;;;5128139;27;20879;-58
2020/12/11 08:58:33;;;;;;;9.63;7.63;;;;;;;;;;5106426;28;20570;-56
2020/12/11 09:00:59;;;;;;;8.87;6.93;;;;;;;;;;5113879;28;21181;-61
2020/12/11 09:03:25;;;;;;;11.67;7.37;;;;;;;;;;5117140;28;20464;-60
2020/12/11 09:05:52;;;;;;;10.20;8.30;;;;;;;;;;5119995;28;20409;-60
2020/12/11 09:08:18;;;;;;;9.17;7.50;;;;;;;;;;5118178;28;20490;-61
2020/12/11 09:10:44;;;;;;;12.43;7.37;;;;;;;;;;5117763;28;21224;-60
2020/12/11 09:13:10;;;;;;;9.43;7.77;;;;;;;;;;5130134;27;20467;-62
2020/12/11 09:15:36;;;;;;;8.20;7.40;;;;;;;;;;5120922;27;20772;-60
2020/12/11 09:18:02;;;;;;;10.40;7.60;;;;;;;;;;5143932;27;20458;-59
2020/12/11 09:20:28;;;;;;;9.63;7.70;;;;;;;;;;5143905;27;20400;-59
2020/12/11 09:22:55;;;;;;;8.80;7.87;;;;;;;;;;5143107;27;20178;-60
2020/12/11 09:25:21;;;;;;;7.53;6.73;;;;;;;;;;5144497;27;20178;-60
2020/12/11 09:27:47;;;;;;;9.43;7.43;;;;;;;;;;5129557;27;20495;-59
2020/12/11 09:30:32;;;;;;;8.67;7.50;;;;;;;;;;5124052;28;20409;-60
2020/12/11 09:35:26;;;;;;;7.93;6.93;;;;;;;;;;5124754;28;20476;-62
2020/12/11 09:37:52;;;;;;;7.90;7.00;;;;;;;;;;5105882;28;20413;-60
2020/12/11 09:40:19;;;;;;;8.17;7.27;;;;;;;;;;5122415;28;20408;-60
2020/12/11 09:42:59;;;;;;;7.73;6.93;;;;;;;;;;5120561;28;20516;-61
2020/12/11 09:54:03;;;;;;;7.93;7.17;;;;;;;;;;5115177;28;20452;-60
2020/12/11 09:56:29;;;;;;;8.20;7.03;;;;;;;;;;5114136;28;20389;-59
2020/12/11 09:59:00;;;;;;;9.73;7.50;;;;;;;;;;5106257;28;20414;-59
2020/12/11 10:01:30;;;;;;;10.63;7.77;;;;;;;;;;5092689;28;20383;-60
2020/12/11 10:03:56;;;;;;;9.17;7.70;;;;;;;;;;5092479;28;20794;-59
2020/12/11 10:06:23;;;;;;;9.43;7.27;;;;;;;;;;5092354;28;20402;-59
2020/12/11 10:08:49;;;;;;;8.30;7.00;;;;;;;;;;5092007;28;20164;-59
2020/12/11 10:11:19;;;;;;;8.57;6.90;;;;;;;;;;5094533;28;20433;-62
2020/12/11 10:13:46;;;;;;;9.30;6.93;;;;;;;;;;5111751;28;20705;-59
2020/12/11 10:16:15;;;;;;;8.20;6.70;;;;;;;;;;5093959;28;20405;-59
2020/12/11 10:18:41;;;;;;;7.93;6.80;;;;;;;;;;5113130;28;20413;-60
2020/12/11 10:21:09;;;;;;;10.20;7.73;;;;;;;;;;5112951;28;20429;-59
2020/12/11 10:23:35;;;;;;;7.80;6.40;;;;;;;;;;5111886;28;20955;-60
2020/12/11 10:26:02;;;;;;;8.63;7.43;;;;;;;;;;5111837;28;20401;-59
2020/12/11 10:28:28;;;;;;;8.83;7.43;;;;;;;;;;5094667;28;20234;-59
2020/12/11 10:30:54;;;;;;;7.57;6.43;;;;;;;;;;5091100;28;20914;-59
2020/12/11 10:33:20;;;;;;;7.97;6.50;;;;;;;;;;5091343;28;20248;-62
2020/12/11 10:35:46;;;;;;;8.17;7.27;;;;;;;;;;5091113;28;20398;-59
2020/12/11 10:38:12;;;;;;;8.77;7.17;;;;;;;;;;5090624;28;20679;-60
2020/12/11 10:40:38;;;;;;;6.80;6.03;;;;;;;;;;5090948;28;20944;-59
2020/12/11 10:43:04;;;;;;;8.67;7.77;;;;;;;;;;5128712;27;20504;-59
2020/12/11 10:45:30;;;;;;;8.30;7.30;;;;;;;;;;5132138;27;20400;-61
2020/12/11 10:47:56;;;;;;;6.93;6.13;;;;;;;;;;5131960;27;20419;-59
2020/12/11 10:50:22;;;;;;;8.40;7.20;;;;;;;;;;5132253;27;20197;-59
2020/12/11 10:52:48;;;;;;;7.77;6.87;;;;;;;;;;5131663;27;20799;-59
2020/12/11 10:55:14;;;;;;;10.30;7.83;;;;;;;;;;5130791;27;20396;-59
2020/12/11 10:57:40;;;;;;;8.93;7.37;;;;;;;;;;5115365;27;20171;-59
2020/12/11 11:00:06;;;;;;;7.50;6.63;;;;;;;;;;5111095;28;20227;-59
2020/12/11 11:02:32;;;;;;;8.70;6.53;;;;;;;;;;5110339;28;20412;-59
2020/12/11 11:04:58;;;;;;;10.17;7.37;;;;;;;;;;5111319;28;20389;-59
2020/12/11 11:07:27;;;;;;;8.07;6.53;;;;;;;;;;5110179;28;20400;-59
2020/12/11 11:12:40;;;;;;;7.03;6.33;;;;;;;;;;5110683;28;20463;-59
2020/12/11 11:28:03;;;;;;;8.43;7.23;;;;;;;;;;5110414;28;20424;-60
2020/12/11 11:30:29;;;;;;;8.87;6.97;;;;;;;;;;5131012;27;21005;-59
2020/12/11 11:32:56;;;;;;;10.80;7.27;;;;;;;;;;5123227;27;20455;-59
2020/12/11 11:35:22;;;;;;;8.33;6.90;;;;;;;;;;5096879;28;20417;-59
2020/12/11 11:37:49;;;;;;;8.80;7.20;;;;;;;;;;5114715;28;20413;-59
2020/12/11 11:40:15;;;;;;;9.87;7.10;;;;;;;;;;5096400;28;20436;-59
2020/12/11 11:42:42;;;;;;;8.13;6.60;;;;;;;;;;5114887;27;20461;-61
2020/12/11 11:45:11;;;;;;;9.17;7.47;;;;;;;;;;5115429;28;20404;-59
2020/12/11 11:47:39;;;;;;;8.10;6.60;;;;;;;;;;5115267;28;20417;-59
2020/12/11 11:55:07;;;;;;;7.70;6.37;;;;;;;;;;5102291;28;20470;-59
2020/12/11 11:57:33;;;;;;;7.33;6.57;;;;;;;;;;5114123;28;20415;-59
2020/12/11 11:59:59;;;;;;;7.87;6.73;;;;;;;;;;5114376;28;21113;-59
2020/12/11 12:02:25;;;;;;;6.47;5.43;;;;;;;;;;5112968;28;20425;-59
2020/12/11 12:04:51;;;;;;;8.87;6.83;;;;;;;;;;5114595;28;21209;-61
2020/12/11 12:07:17;;;;;;;7.53;6.20;;;;;;;;;;5113966;28;20914;-60
2020/12/11 12:09:43;;;;;;;6.63;5.67;;;;;;;;;;5088409;28;20423;-59
2020/12/11 12:12:09;;;;;;;7.63;6.23;;;;;;;;;;5078143;28;20210;-59
2020/12/11 12:14:36;;;;;;;7.57;6.50;;;;;;;;;;5081240;28;20412;-60
2020/12/11 12:17:05;;;;;;;9.03;7.03;;;;;;;;;;5113612;28;20401;-60
2020/12/11 12:19:34;;;;;;;8.50;6.50;;;;;;;;;;5095383;28;20427;-62
2020/12/11 12:30:00;;;;;;;6.83;5.87;;;;;;;;;;5072276;28;20402;-60
2020/12/11 12:32:29;;;;;;;7.90;6.80;;;;;;;;;;5065138;28;20450;-59
2020/12/11 12:35:00;;;;;;;7.97;6.50;;;;;;;;;;5092836;28;20402;-59
2020/12/11 12:45:09;;;;;;;8.50;6.73;;;;;;;;;;5088456;28;20187;-60
2020/12/11 12:47:36;;;;;;;7.47;6.23;;;;;;;;;;5087468;28;20471;-59
2020/12/11 12:50:03;;;;;;;11.80;6.27;;;;;;;;;;5091843;28;20415;-61
2020/12/11 12:52:29;;;;;;;8.40;6.57;;;;;;;;;;5088422;28;20517;-60
2020/12/11 12:54:55;;;;;;;7.60;6.33;;;;;;;;;;5078264;28;20413;-59
2020/12/11 12:57:27;;;;;;;8.47;5.80;;;;;;;;;;5089543;28;20226;-60
2020/12/11 13:02:54;;;;;;;7.77;6.33;;;;;;;;;;5086603;28;20825;-60
2020/12/11 13:05:20;;;;;;;8.97;6.10;;;;;;;;;;5092967;28;20430;-60
2020/12/11 13:07:46;;;;;;;7.33;6.17;;;;;;;;;;5108844;28;20421;-60
2020/12/11 13:10:12;;;;;;;7.90;6.23;;;;;;;;;;5103576;28;20543;-61
2020/12/11 13:12:41;;;;;;;8.43;5.97;;;;;;;;;;5108709;28;20465;-60
2020/12/11 13:15:07;;;;;;;10.23;6.80;;;;;;;;;;5110134;28;20417;-60
2020/12/11 13:17:33;;;;;;;6.80;6.07;;;;;;;;;;5105877;28;20417;-60
2020/12/11 13:20:01;;;;;;;8.83;6.30;;;;;;;;;;5092557;28;20401;-59
2020/12/11 13:27:38;;;;;;;6.77;6.10;;;;;;;;;;5092652;28;20178;-60
2020/12/11 13:30:04;;;;;;;6.93;6.03;;;;;;;;;;5074209;28;20409;-60
2020/12/11 13:32:31;;;;;;;7.53;5.77;;;;;;;;;;5092737;28;20458;-59
2020/12/11 13:34:57;;;;;;;39.13;6.97;;;;;;;;;;5101983;28;20413;-60
2020/12/11 13:37:23;;;;;;;8.97;6.50;;;;;;;;;;5092531;28;20409;-61
2020/12/11 13:39:49;;;;;;;9.03;6.47;;;;;;;;;;5091328;28;20406;-60
2020/12/11 13:42:15;;;;;;;7.43;6.30;;;;;;;;;;5116898;27;20451;-60
2020/12/11 13:44:41;;;;;;;7.07;5.57;;;;;;;;;;5076418;28;20175;-60
2020/12/11 13:47:07;;;;;;;6.90;5.23;;;;;;;;;;5110610;28;20531;-62
2020/12/11 13:49:34;;;;;;;7.60;6.00;;;;;;;;;;5091373;28;20414;-60
2020/12/11 13:52:00;;;;;;;7.47;5.97;;;;;;;;;;5111988;28;20510;-60
2020/12/11 13:54:26;;;;;;;7.57;6.00;;;;;;;;;;5089427;28;20426;-60
2020/12/11 13:56:52;;;;;;;8.53;6.40;;;;;;;;;;5088542;28;20555;-60
2020/12/11 13:59:18;;;;;;;6.33;5.67;;;;;;;;;;5102281;28;20958;-60
2020/12/11 14:01:50;;;;;;;8.13;5.73;;;;;;;;;;5104715;28;20410;-61
2020/12/11 14:04:17;;;;;;;7.87;5.60;;;;;;;;;;5104209;28;21100;-60
2020/12/11 14:06:43;;;;;;;6.87;5.40;;;;;;;;;;5111964;28;20421;-61
2020/12/11 14:09:09;;;;;;;6.63;5.70;;;;;;;;;;5109711;28;20417;-60
2020/12/11 14:11:35;;;;;;;5.50;4.67;;;;;;;;;;5118144;27;20432;-60
2020/12/11 14:14:01;;;;;;;6.23;5.37;;;;;;;;;;5112293;28;20427;-60
2020/12/11 14:24:16;;;;;;;6.50;5.83;;;;;;;;;;5111106;28;20427;-60
2020/12/11 14:26:45;;;;;;;8.53;5.37;;;;;;;;;;5092756;28;20907;-60
2020/12/11 14:29:12;;;;;;;4.93;4.30;;;;;;;;;;5111187;28;20899;-60
2020/12/11 14:31:38;;;;;;;6.20;5.57;;;;;;;;;;5110019;28;20441;-61
2020/12/11 14:34:04;;;;;;;5.30;4.43;;;;;;;;;;5092564;28;20505;-61
2020/12/11 14:36:30;;;;;;;6.33;4.93;;;;;;;;;;5091183;28;20933;-60
2020/12/11 14:41:22;;;;;;;7.43;5.77;;;;;;;;;;5125939;27;20430;-60
2020/12/11 14:43:49;;;;;;;5.77;4.30;;;;;;;;;;5096862;28;20671;-61
2020/12/11 14:46:18;;;;;;;5.63;5.03;;;;;;;;;;5108976;28;20461;-60
2020/12/11 14:48:44;;;;;;;5.13;4.63;;;;;;;;;;5097334;28;20429;-60
2020/12/11 14:51:10;;;;;;;5.43;4.50;;;;;;;;;;5110114;28;20884;-60
2020/12/11 14:53:36;;;;;;;5.83;4.50;;;;;;;;;;5110386;28;20449;-60
2020/12/11 14:56:02;;;;;;;5.47;4.70;;;;;;;;;;5111241;28;20424;-60
2020/12/11 14:58:28;;;;;;;6.50;5.17;;;;;;;;;;5084996;28;20968;-61
2020/12/11 15:00:54;;;;;;;5.27;4.73;;;;;;;;;;5083165;28;20529;-60
2020/12/11 15:03:20;;;;;;;5.73;4.57;;;;;;;;;;5091196;28;20296;-60
2020/12/11 15:05:46;;;;;;;6.37;4.37;;;;;;;;;;5080949;28;20420;-60
2020/12/11 15:08:12;;;;;;;5.10;4.40;;;;;;;;;;5105191;28;20422;-60
2020/12/11 15:10:39;;;;;;;5.50;4.50;;;;;;;;;;5111046;28;20839;-61
2020/12/11 15:13:05;;;;;;;12.27;3.83;;;;;;;;;;5091292;28;20197;-61
2020/12/11 15:15:31;;;;;;;7.03;4.57;;;;;;;;;;5109103;28;20409;-60
2020/12/11 15:17:57;;;;;;;4.87;4.37;;;;;;;;;;5100129;28;20425;-61
2020/12/11 15:20:23;;;;;;;4.97;4.27;;;;;;;;;;5110151;28;20452;-63
2020/12/11 15:22:50;;;;;;;4.97;3.90;;;;;;;;;;5106053;28;20425;-60
2020/12/11 15:25:17;;;;;;;4.10;3.60;;;;;;;;;;5092349;28;20447;-60
2020/12/11 15:27:43;;;;;;;6.03;5.13;;;;;;;;;;5109426;28;20502;-62
2020/12/11 15:30:09;;;;;;;5.77;4.40;;;;;;;;;;5091382;28;20482;-60
2020/12/11 15:32:36;;;;;;;5.10;4.60;;;;;;;;;;5109587;28;20503;-60
2020/12/11 15:35:02;;;;;;;5.77;5.03;;;;;;;;;;5086281;28;20444;-60
2020/12/11 15:37:28;;;;;;;5.17;4.43;;;;;;;;;;5102537;28;20630;-60
2020/12/11 15:39:54;;;;;;;7.07;5.03;;;;;;;;;;5105469;28;20431;-60
2020/12/11 15:42:20;;;;;;;7.40;6.20;;;;;;;;;;5095286;28;20466;-60
2020/12/11 15:44:46;;;;;;;8.07;5.43;;;;;;;;;;5104014;28;20172;-60
2020/12/11 15:47:12;;;;;;;5.97;4.77;;;;;;;;;;5097963;28;20172;-60
2020/12/11 15:49:38;;;;;;;11.40;5.63;;;;;;;;;;5092888;28;20172;-59